sensor_id;sensor_type;location;lat;lon;timestamp;pressure;altitude;pressure_sealevel;temperature;humidity
13934;BME280;7039;52.168;9.866;2023-06-10T00:00:03;100685.75;;;19.21;60.79
13934;BME280;7039;52.168;9.866;2023-06-10T00:02:31;100683.03;;;19.11;61.32
13934;BME280;7039;52.168;9.866;2023-06-10T00:04:57;100680.31;;;19.02;61.13
13934;BME280;7039;52.168;9.866;2023-06-10T00:07:24;100692.75;;;18.67;62.02
13934;BME280;7039;52.168;9.866;2023-06-10T00:09:51;100693.16;;;18.40;62.85
13934;BME280;7039;52.168;9.866;2023-06-10T00:12:18;100693.09;;;18.74;62.54
13934;BME280;7039;52.168;9.866;2023-06-10T00:14:45;100701.22;;;18.93;62.66
13934;BME280;7039;52.168;9.866;2023-06-10T00:17:13;100697.72;;;19.04;62.20
13934;BME280;7039;52.168;9.866;2023-06-10T00:19:40;100697.25;;;18.99;62.38
13934;BME280;7039;52.168;9.866;2023-06-10T00:22:07;100691.34;;;19.07;62.30
13934;BME280;7039;52.168;9.866;2023-06-10T00:24:33;100686.72;;;18.88;62.29
13934;BME280;7039;52.168;9.866;2023-06-10T00:27:02;100693.47;;;18.81;62.69
13934;BME280;7039;52.168;9.866;2023-06-10T00:29:28;100694.31;;;18.70;62.71
13934;BME280;7039;52.168;9.866;2023-06-10T00:31:55;100682.44;;;18.53;63.40
13934;BME280;7039;52.168;9.866;2023-06-10T00:34:22;100689.81;;;18.04;63.77
13934;BME280;7039;52.168;9.866;2023-06-10T00:36:49;100689.34;;;17.99;64.68
13934;BME280;7039;52.168;9.866;2023-06-10T00:39:15;100696.19;;;18.02;65.29
13934;BME280;7039;52.168;9.866;2023-06-10T00:41:42;100694.38;;;18.13;65.16
13934;BME280;7039;52.168;9.866;2023-06-10T00:44:10;100702.78;;;18.19;64.85
13934;BME280;7039;52.168;9.866;2023-06-10T00:46:37;100705.66;;;18.15;65.22
13934;BME280;7039;52.168;9.866;2023-06-10T00:49:03;100716.84;;;18.30;64.82
13934;BME280;7039;52.168;9.866;2023-06-10T00:51:30;100711.41;;;18.21;63.73
13934;BME280;7039;52.168;9.866;2023-06-10T00:53:57;100709.84;;;18.29;64.25
13934;BME280;7039;52.168;9.866;2023-06-10T00:56:24;100710.47;;;18.22;63.42
13934;BME280;7039;52.168;9.866;2023-06-10T00:58:51;100716.09;;;18.40;64.17
13934;BME280;7039;52.168;9.866;2023-06-10T01:01:19;100709.59;;;18.44;63.41
13934;BME280;7039;52.168;9.866;2023-06-10T01:03:46;100716.09;;;18.40;63.77
13934;BME280;7039;52.168;9.866;2023-06-10T01:06:20;100710.09;;;18.38;62.66
13934;BME280;7039;52.168;9.866;2023-06-10T01:08:55;100710.09;;;18.38;62.59
13934;BME280;7039;52.168;9.866;2023-06-10T01:11:28;100702.53;;;18.22;63.09
13934;BME280;7039;52.168;9.866;2023-06-10T01:13:56;100706.28;;;18.19;63.49
13934;BME280;7039;52.168;9.866;2023-06-10T01:16:26;100697.25;;;17.99;62.86
13934;BME280;7039;52.168;9.866;2023-06-10T01:18:53;100706.63;;;18.03;63.81
13934;BME280;7039;52.168;9.866;2023-06-10T01:21:22;100700.13;;;17.96;63.47
13934;BME280;7039;52.168;9.866;2023-06-10T01:23:50;100709.28;;;18.03;63.76
13934;BME280;7039;52.168;9.866;2023-06-10T01:26:17;100707.81;;;18.10;63.66
13934;BME280;7039;52.168;9.866;2023-06-10T01:28:48;100713.91;;;17.88;63.41
13934;BME280;7039;52.168;9.866;2023-06-10T01:31:25;100715.94;;;17.85;64.08
13934;BME280;7039;52.168;9.866;2023-06-10T01:34:00;100719.16;;;17.77;64.67
13934;BME280;7039;52.168;9.866;2023-06-10T01:36:29;100722.69;;;17.53;64.96
13934;BME280;7039;52.168;9.866;2023-06-10T01:38:57;100718.84;;;17.46;66.09
13934;BME280;7039;52.168;9.866;2023-06-10T01:41:26;100727.34;;;17.50;65.57
13934;BME280;7039;52.168;9.866;2023-06-10T01:43:54;100732.41;;;17.64;65.90
13934;BME280;7039;52.168;9.866;2023-06-10T01:46:20;100730.13;;;17.60;66.50
13934;BME280;7039;52.168;9.866;2023-06-10T01:48:47;100733.66;;;17.71;66.58
13934;BME280;7039;52.168;9.866;2023-06-10T01:51:14;100738.22;;;17.69;66.95
13934;BME280;7039;52.168;9.866;2023-06-10T01:53:42;100744.59;;;17.78;67.05
13934;BME280;7039;52.168;9.866;2023-06-10T01:56:08;100740.25;;;17.77;67.50
13934;BME280;7039;52.168;9.866;2023-06-10T01:58:35;100738.31;;;17.68;68.22
13934;BME280;7039;52.168;9.866;2023-06-10T02:01:01;100747.78;;;17.70;68.00
13934;BME280;7039;52.168;9.866;2023-06-10T02:03:28;100747.44;;;17.75;68.09
13934;BME280;7039;52.168;9.866;2023-06-10T02:05:54;100738.47;;;17.42;69.61
13934;BME280;7039;52.168;9.866;2023-06-10T02:08:21;100737.91;;;17.50;69.96
13934;BME280;7039;52.168;9.866;2023-06-10T02:10:49;100747.72;;;17.48;70.31
13934;BME280;7039;52.168;9.866;2023-06-10T02:13:15;100751.09;;;17.50;69.95
13934;BME280;7039;52.168;9.866;2023-06-10T02:15:42;100750.97;;;17.51;69.92
13934;BME280;7039;52.168;9.866;2023-06-10T02:18:08;100762.06;;;17.68;69.70
13934;BME280;7039;52.168;9.866;2023-06-10T02:20:37;100755.69;;;17.70;69.52
13934;BME280;7039;52.168;9.866;2023-06-10T02:23:03;100755.69;;;17.70;69.95
13934;BME280;7039;52.168;9.866;2023-06-10T02:25:30;100753.75;;;17.61;70.50
13934;BME280;7039;52.168;9.866;2023-06-10T02:27:58;100766.72;;;17.64;70.11
13934;BME280;7039;52.168;9.866;2023-06-10T02:30:25;100767.06;;;17.60;70.58
13934;BME280;7039;52.168;9.866;2023-06-10T02:32:51;100768.06;;;17.70;70.38
13934;BME280;7039;52.168;9.866;2023-06-10T02:35:17;100769.47;;;17.63;70.34
13934;BME280;7039;52.168;9.866;2023-06-10T02:37:44;100771.88;;;17.66;70.46
13934;BME280;7039;52.168;9.866;2023-06-10T02:40:11;100764.28;;;17.50;71.50
13934;BME280;7039;52.168;9.866;2023-06-10T02:42:38;100772.06;;;17.51;71.44
13934;BME280;7039;52.168;9.866;2023-06-10T02:45:07;100770.91;;;17.56;71.49
13934;BME280;7039;52.168;9.866;2023-06-10T02:47:34;100774.09;;;17.48;72.04
13934;BME280;7039;52.168;9.866;2023-06-10T02:50:00;100770.22;;;17.41;72.22
13934;BME280;7039;52.168;9.866;2023-06-10T02:52:27;100779.22;;;17.38;72.31
13934;BME280;7039;52.168;9.866;2023-06-10T02:54:53;100777.03;;;17.32;72.55
13934;BME280;7039;52.168;9.866;2023-06-10T02:57:20;100781.56;;;17.06;74.46
13934;BME280;7039;52.168;9.866;2023-06-10T02:59:46;100776.69;;;17.13;73.96
13934;BME280;7039;52.168;9.866;2023-06-10T03:02:14;100778.25;;;17.15;73.77
13934;BME280;7039;52.168;9.866;2023-06-10T03:04:41;100787.41;;;17.22;73.26
13934;BME280;7039;52.168;9.866;2023-06-10T03:07:08;100784.44;;;17.27;72.85
13934;BME280;7039;52.168;9.866;2023-06-10T03:09:36;100775.69;;;17.26;73.47
13934;BME280;7039;52.168;9.866;2023-06-10T03:12:03;100772.59;;;17.08;74.17
13934;BME280;7039;52.168;9.866;2023-06-10T03:14:30;100772.50;;;17.10;73.80
13934;BME280;7039;52.168;9.866;2023-06-10T03:16:56;100781.56;;;17.06;74.36
13934;BME280;7039;52.168;9.866;2023-06-10T03:19:24;100780.28;;;17.11;74.01
13934;BME280;7039;52.168;9.866;2023-06-10T03:22:07;100787.78;;;17.05;74.48
13934;BME280;7039;52.168;9.866;2023-06-10T03:24:33;100791.97;;;17.07;74.00
13934;BME280;7039;52.168;9.866;2023-06-10T03:27:00;100784.31;;;17.04;73.77
13934;BME280;7039;52.168;9.866;2023-06-10T03:29:27;100789.06;;;16.99;73.98
13934;BME280;7039;52.168;9.866;2023-06-10T03:31:54;100792.53;;;17.00;73.50
13934;BME280;7039;52.168;9.866;2023-06-10T03:34:20;100793.38;;;17.00;72.98
13934;BME280;7039;52.168;9.866;2023-06-10T03:36:48;100779.97;;;16.28;74.48
13934;BME280;7039;52.168;9.866;2023-06-10T03:39:15;100799.56;;;16.49;74.30
13934;BME280;7039;52.168;9.866;2023-06-10T03:41:41;100799.03;;;16.70;73.52
13934;BME280;7039;52.168;9.866;2023-06-10T03:44:08;100807.75;;;16.70;73.14
13934;BME280;7039;52.168;9.866;2023-06-10T03:46:34;100804.19;;;16.72;73.04
13934;BME280;7039;52.168;9.866;2023-06-10T03:49:01;100811.03;;;16.74;73.19
13934;BME280;7039;52.168;9.866;2023-06-10T03:51:28;100805.13;;;16.83;73.18
13934;BME280;7039;52.168;9.866;2023-06-10T03:53:56;100810.69;;;16.91;73.24
13934;BME280;7039;52.168;9.866;2023-06-10T03:56:23;100805.53;;;16.90;73.66
13934;BME280;7039;52.168;9.866;2023-06-10T03:58:51;100809.19;;;17.00;73.87
13934;BME280;7039;52.168;9.866;2023-06-10T04:01:17;100808.25;;;17.01;73.32
13934;BME280;7039;52.168;9.866;2023-06-10T04:03:46;100810.59;;;16.80;72.48
13934;BME280;7039;52.168;9.866;2023-06-10T04:06:14;100793.34;;;16.50;72.82
13934;BME280;7039;52.168;9.866;2023-06-10T04:08:41;100797.84;;;15.84;75.56
13934;BME280;7039;52.168;9.866;2023-06-10T04:11:09;100811.00;;;15.84;76.19
13934;BME280;7039;52.168;9.866;2023-06-10T04:13:36;100809.91;;;16.27;75.12
13934;BME280;7039;52.168;9.866;2023-06-10T04:16:03;100815.88;;;16.16;75.37
13934;BME280;7039;52.168;9.866;2023-06-10T04:18:29;100817.78;;;16.27;75.40
13934;BME280;7039;52.168;9.866;2023-06-10T04:20:56;100814.00;;;16.31;74.78
13934;BME280;7039;52.168;9.866;2023-06-10T04:23:22;100815.06;;;16.54;74.35
13934;BME280;7039;52.168;9.866;2023-06-10T04:25:49;100813.25;;;16.16;75.99
13934;BME280;7039;52.168;9.866;2023-06-10T04:28:17;100796.97;;;15.71;77.85
13934;BME280;7039;52.168;9.866;2023-06-10T04:30:44;100812.06;;;15.82;78.19
13934;BME280;7039;52.168;9.866;2023-06-10T04:33:11;100817.78;;;16.27;76.42
13934;BME280;7039;52.168;9.866;2023-06-10T04:35:37;100831.69;;;16.67;74.35
13934;BME280;7039;52.168;9.866;2023-06-10T04:38:04;100831.50;;;17.07;73.18
13934;BME280;7039;52.168;9.866;2023-06-10T04:40:30;100827.69;;;17.24;72.24
13934;BME280;7039;52.168;9.866;2023-06-10T04:42:57;100816.81;;;16.92;74.03
13934;BME280;7039;52.168;9.866;2023-06-10T04:45:24;100810.56;;;17.06;74.26
13934;BME280;7039;52.168;9.866;2023-06-10T04:47:51;100822.22;;;17.39;72.71
13934;BME280;7039;52.168;9.866;2023-06-10T04:50:21;100807.97;;;17.41;72.21
13934;BME280;7039;52.168;9.866;2023-06-10T04:52:47;100806.16;;;17.66;72.51
13934;BME280;7039;52.168;9.866;2023-06-10T04:55:13;100799.75;;;17.22;73.75
13934;BME280;7039;52.168;9.866;2023-06-10T04:57:40;100806.84;;;17.57;72.44
13934;BME280;7039;52.168;9.866;2023-06-10T05:00:07;100808.59;;;17.80;71.05
13934;BME280;7039;52.168;9.866;2023-06-10T05:02:35;100806.66;;;17.95;70.85
13934;BME280;7039;52.168;9.866;2023-06-10T05:05:02;100800.38;;;17.85;72.24
13934;BME280;7039;52.168;9.866;2023-06-10T05:07:28;100798.28;;;17.77;71.94
13934;BME280;7039;52.168;9.866;2023-06-10T05:09:54;100805.94;;;17.93;71.75
13934;BME280;7039;52.168;9.866;2023-06-10T05:12:21;100798.16;;;18.03;71.56
13934;BME280;7039;52.168;9.866;2023-06-10T05:14:47;100805.75;;;18.30;70.60
13934;BME280;7039;52.168;9.866;2023-06-10T05:17:14;100793.84;;;18.13;71.93
13934;BME280;7039;52.168;9.866;2023-06-10T05:19:42;100810.31;;;18.39;70.71
13934;BME280;7039;52.168;9.866;2023-06-10T05:22:08;100816.13;;;18.55;69.55
13934;BME280;7039;52.168;9.866;2023-06-10T05:24:35;100807.34;;;18.77;69.95
13934;BME280;7039;52.168;9.866;2023-06-10T05:27:01;100800.72;;;18.94;69.36
13934;BME280;7039;52.168;9.866;2023-06-10T05:29:28;100797.59;;;18.78;69.33
13934;BME280;7039;52.168;9.866;2023-06-10T05:31:55;100798.09;;;18.83;69.06
13934;BME280;7039;52.168;9.866;2023-06-10T05:34:22;100801.69;;;18.82;69.58
13934;BME280;7039;52.168;9.866;2023-06-10T05:36:50;100803.59;;;19.03;68.44
13934;BME280;7039;52.168;9.866;2023-06-10T05:39:17;100809.56;;;19.16;68.56
13934;BME280;7039;52.168;9.866;2023-06-10T05:41:43;100803.06;;;19.20;67.98
13934;BME280;7039;52.168;9.866;2023-06-10T05:44:10;100801.44;;;18.96;68.45
13934;BME280;7039;52.168;9.866;2023-06-10T05:46:36;100812.66;;;19.21;68.17
13934;BME280;7039;52.168;9.866;2023-06-10T05:49:03;100801.09;;;18.45;70.98
13934;BME280;7039;52.168;9.866;2023-06-10T05:51:29;100804.94;;;18.97;69.62
13934;BME280;7039;52.168;9.866;2023-06-10T05:53:57;100806.66;;;19.30;67.77
13934;BME280;7039;52.168;9.866;2023-06-10T05:56:24;100810.00;;;19.65;67.20
13934;BME280;7039;52.168;9.866;2023-06-10T05:58:51;100809.66;;;19.69;66.40
13934;BME280;7039;52.168;9.866;2023-06-10T06:01:17;100806.16;;;19.69;67.06
13934;BME280;7039;52.168;9.866;2023-06-10T06:03:44;100804.38;;;19.69;67.27
13934;BME280;7039;52.168;9.866;2023-06-10T06:06:10;100805.44;;;19.67;66.43
13934;BME280;7039;52.168;9.866;2023-06-10T06:08:37;100804.38;;;19.69;66.90
13934;BME280;7039;52.168;9.866;2023-06-10T06:11:05;100802.22;;;19.84;66.64
13934;BME280;7039;52.168;9.866;2023-06-10T06:13:31;100805.97;;;19.81;65.94
13934;BME280;7039;52.168;9.866;2023-06-10T06:15:57;100803.91;;;20.06;65.72
13934;BME280;7039;52.168;9.866;2023-06-10T06:18:24;100801.75;;;20.21;65.55
13934;BME280;7039;52.168;9.866;2023-06-10T06:20:51;100806.66;;;20.47;64.94
13934;BME280;7039;52.168;9.866;2023-06-10T06:23:17;100797.78;;;20.57;63.82
13934;BME280;7039;52.168;9.866;2023-06-10T06:25:44;100801.91;;;20.50;63.96
13934;BME280;7039;52.168;9.866;2023-06-10T06:28:12;100804.25;;;20.64;64.13
13934;BME280;7039;52.168;9.866;2023-06-10T06:30:41;100806.19;;;21.03;62.51
13934;BME280;7039;52.168;9.866;2023-06-10T06:33:08;100803.78;;;21.10;62.56
13934;BME280;7039;52.168;9.866;2023-06-10T06:35:34;100806.59;;;20.98;63.00
13934;BME280;7039;52.168;9.866;2023-06-10T06:38:03;100807.44;;;21.09;63.26
13934;BME280;7039;52.168;9.866;2023-06-10T06:40:30;100800.47;;;21.08;62.64
13934;BME280;7039;52.168;9.866;2023-06-10T06:42:56;100803.25;;;21.25;61.66
13934;BME280;7039;52.168;9.866;2023-06-10T06:45:24;100815.16;;;21.41;61.81
13934;BME280;7039;52.168;9.866;2023-06-10T06:47:51;100804.81;;;21.28;62.66
13934;BME280;7039;52.168;9.866;2023-06-10T06:50:17;100817.56;;;21.63;61.62
13934;BME280;7039;52.168;9.866;2023-06-10T06:52:44;100810.69;;;21.90;60.56
13934;BME280;7039;52.168;9.866;2023-06-10T06:55:10;100813.91;;;21.55;61.13
13934;BME280;7039;52.168;9.866;2023-06-10T06:57:37;100808.31;;;21.19;62.59
13934;BME280;7039;52.168;9.866;2023-06-10T07:00:05;100805.25;;;21.53;62.69
13934;BME280;7039;52.168;9.866;2023-06-10T07:02:35;100805.66;;;21.19;62.38
13934;BME280;7039;52.168;9.866;2023-06-10T07:05:02;100812.00;;;20.97;63.04
13934;BME280;7039;52.168;9.866;2023-06-10T07:07:28;100815.69;;;21.25;63.12
13934;BME280;7039;52.168;9.866;2023-06-10T07:09:55;100816.13;;;21.40;62.50
13934;BME280;7039;52.168;9.866;2023-06-10T07:12:21;100809.47;;;21.55;61.86
13934;BME280;7039;52.168;9.866;2023-06-10T07:14:49;100808.19;;;20.80;64.84
13934;BME280;7039;52.168;9.866;2023-06-10T07:17:15;100812.19;;;20.13;66.69
13934;BME280;7039;52.168;9.866;2023-06-10T07:19:44;100817.50;;;19.92;66.99
13934;BME280;7039;52.168;9.866;2023-06-10T07:22:11;100809.56;;;19.92;67.42
13934;BME280;7039;52.168;9.866;2023-06-10T07:24:38;100815.41;;;19.95;67.43
13934;BME280;7039;52.168;9.866;2023-06-10T07:27:05;100807.88;;;19.58;68.59
13934;BME280;7039;52.168;9.866;2023-06-10T07:29:32;100825.50;;;19.80;68.07
13934;BME280;7039;52.168;9.866;2023-06-10T07:31:58;100819.63;;;19.33;69.96
13934;BME280;7039;52.168;9.866;2023-06-10T07:34:25;100826.13;;;19.61;69.70
13934;BME280;7039;52.168;9.866;2023-06-10T07:36:53;100819.00;;;19.73;68.99
13934;BME280;7039;52.168;9.866;2023-06-10T07:39:19;100818.91;;;19.64;69.02
13934;BME280;7039;52.168;9.866;2023-06-10T07:41:46;100818.06;;;19.95;67.59
13934;BME280;7039;52.168;9.866;2023-06-10T07:44:14;100817.16;;;19.85;68.46
13934;BME280;7039;52.168;9.866;2023-06-10T07:46:40;100818.13;;;20.26;67.35
13934;BME280;7039;52.168;9.866;2023-06-10T07:49:07;100817.81;;;20.50;66.41
13934;BME280;7039;52.168;9.866;2023-06-10T07:51:33;100818.88;;;20.69;65.50
13934;BME280;7039;52.168;9.866;2023-06-10T07:54:02;100823.78;;;20.73;66.06
13934;BME280;7039;52.168;9.866;2023-06-10T07:56:29;100820.09;;;20.95;66.00
13934;BME280;7039;52.168;9.866;2023-06-10T07:58:55;100811.94;;;20.77;65.64
13934;BME280;7039;52.168;9.866;2023-06-10T08:01:22;100823.06;;;21.12;65.27
13934;BME280;7039;52.168;9.866;2023-06-10T08:03:49;100822.09;;;21.03;64.74
13934;BME280;7039;52.168;9.866;2023-06-10T08:06:16;100827.00;;;21.27;64.59
13934;BME280;7039;52.168;9.866;2023-06-10T08:08:42;100809.09;;;20.59;65.82
13934;BME280;7039;52.168;9.866;2023-06-10T08:11:10;100820.81;;;21.07;65.62
13934;BME280;7039;52.168;9.866;2023-06-10T08:13:37;100811.78;;;21.19;65.20
13934;BME280;7039;52.168;9.866;2023-06-10T08:16:05;100810.66;;;21.12;64.95
13934;BME280;7039;52.168;9.866;2023-06-10T08:18:31;100809.44;;;21.45;64.06
13934;BME280;7039;52.168;9.866;2023-06-10T08:20:58;100818.81;;;21.50;65.07
13934;BME280;7039;52.168;9.866;2023-06-10T08:23:24;100802.47;;;21.64;64.26
13934;BME280;7039;52.168;9.866;2023-06-10T08:25:51;100807.22;;;21.60;63.67
13934;BME280;7039;52.168;9.866;2023-06-10T08:28:19;100803.84;;;21.68;64.28
13934;BME280;7039;52.168;9.866;2023-06-10T08:30:45;100801.50;;;21.55;66.15
13934;BME280;7039;52.168;9.866;2023-06-10T08:33:12;100810.97;;;21.77;64.72
13934;BME280;7039;52.168;9.866;2023-06-10T08:35:38;100809.59;;;21.83;64.18
13934;BME280;7039;52.168;9.866;2023-06-10T08:38:04;100817.66;;;22.10;63.71
13934;BME280;7039;52.168;9.866;2023-06-10T08:40:32;100803.53;;;22.10;63.32
13934;BME280;7039;52.168;9.866;2023-06-10T08:43:04;100813.84;;;22.23;63.33
13934;BME280;7039;52.168;9.866;2023-06-10T08:45:36;100807.63;;;21.85;63.29
13934;BME280;7039;52.168;9.866;2023-06-10T08:48:03;100815.56;;;22.24;63.19
13934;BME280;7039;52.168;9.866;2023-06-10T08:50:33;100807.22;;;22.46;62.25
13934;BME280;7039;52.168;9.866;2023-06-10T08:53:00;100804.38;;;22.58;62.41
13934;BME280;7039;52.168;9.866;2023-06-10T08:55:32;100801.22;;;22.44;62.46
13934;BME280;7039;52.168;9.866;2023-06-10T08:57:59;100800.72;;;22.59;62.38
13934;BME280;7039;52.168;9.866;2023-06-10T09:00:26;100806.34;;;22.83;62.25
13934;BME280;7039;52.168;9.866;2023-06-10T09:02:55;100802.31;;;23.07;61.83
13934;BME280;7039;52.168;9.866;2023-06-10T09:05:22;100804.25;;;23.14;61.94
13934;BME280;7039;52.168;9.866;2023-06-10T09:07:48;100803.09;;;23.17;61.65
13934;BME280;7039;52.168;9.866;2023-06-10T09:10:15;100803.09;;;23.53;61.15
13934;BME280;7039;52.168;9.866;2023-06-10T09:12:42;100799.06;;;23.67;60.98
13934;BME280;7039;52.168;9.866;2023-06-10T09:15:09;100795.31;;;23.77;61.81
13934;BME280;7039;52.168;9.866;2023-06-10T09:17:37;100791.91;;;23.85;61.25
13934;BME280;7039;52.168;9.866;2023-06-10T09:20:08;100799.22;;;24.09;60.85
13934;BME280;7039;52.168;9.866;2023-06-10T09:22:34;100795.03;;;24.07;60.93
13934;BME280;7039;52.168;9.866;2023-06-10T09:25:02;100796.34;;;24.03;60.87
13934;BME280;7039;52.168;9.866;2023-06-10T09:27:30;100789.75;;;24.15;61.51
13934;BME280;7039;52.168;9.866;2023-06-10T09:29:57;100797.69;;;24.33;60.92
13934;BME280;7039;52.168;9.866;2023-06-10T09:32:24;100802.03;;;24.60;60.46
13934;BME280;7039;52.168;9.866;2023-06-10T09:34:51;100793.22;;;24.68;59.14
13934;BME280;7039;52.168;9.866;2023-06-10T09:37:21;100794.47;;;24.47;60.28
13934;BME280;7039;52.168;9.866;2023-06-10T09:40:01;100791.84;;;24.29;60.10
13934;BME280;7039;52.168;9.866;2023-06-10T09:42:32;100792.88;;;24.63;60.69
13934;BME280;7039;52.168;9.866;2023-06-10T09:44:59;100791.75;;;24.82;59.56
13934;BME280;7039;52.168;9.866;2023-06-10T09:47:25;100782.41;;;24.69;59.54
13934;BME280;7039;52.168;9.866;2023-06-10T09:49:52;100787.13;;;25.00;60.06
13934;BME280;7039;52.168;9.866;2023-06-10T09:52:22;100787.22;;;25.25;60.15
13934;BME280;7039;52.168;9.866;2023-06-10T09:54:50;100778.50;;;25.14;58.97
13934;BME280;7039;52.168;9.866;2023-06-10T09:57:17;100777.56;;;24.73;59.17
13934;BME280;7039;52.168;9.866;2023-06-10T09:59:44;100781.81;;;25.08;59.40
13934;BME280;7039;52.168;9.866;2023-06-10T10:02:13;100786.50;;;25.06;59.95
13934;BME280;7039;52.168;9.866;2023-06-10T10:04:40;100776.94;;;24.87;59.46
13934;BME280;7039;52.168;9.866;2023-06-10T10:07:07;100781.13;;;24.90;60.83
13934;BME280;7039;52.168;9.866;2023-06-10T10:09:35;100786.66;;;25.05;61.08
13934;BME280;7039;52.168;9.866;2023-06-10T10:12:02;100786.41;;;25.32;59.86
13934;BME280;7039;52.168;9.866;2023-06-10T10:14:31;100792.41;;;25.59;59.35
13934;BME280;7039;52.168;9.866;2023-06-10T10:17:03;100783.56;;;25.58;59.63
13934;BME280;7039;52.168;9.866;2023-06-10T10:19:32;100777.56;;;25.40;59.49
13934;BME280;7039;52.168;9.866;2023-06-10T10:22:07;100779.91;;;25.35;60.38
13934;BME280;7039;52.168;9.866;2023-06-10T10:24:39;100781.38;;;25.87;60.96
13934;BME280;7039;52.168;9.866;2023-06-10T10:27:11;100782.72;;;25.91;61.48
13934;BME280;7039;52.168;9.866;2023-06-10T10:29:40;100779.56;;;26.03;58.48
13934;BME280;7039;52.168;9.866;2023-06-10T10:32:08;100776.09;;;26.34;57.35
13934;BME280;7039;52.168;9.866;2023-06-10T10:34:44;100781.22;;;26.60;57.35
13934;BME280;7039;52.168;9.866;2023-06-10T10:37:17;100768.97;;;26.74;58.03
13934;BME280;7039;52.168;9.866;2023-06-10T10:39:45;100777.56;;;27.16;56.50
13934;BME280;7039;52.168;9.866;2023-06-10T10:42:12;100775.81;;;27.31;55.91
13934;BME280;7039;52.168;9.866;2023-06-10T10:44:39;100778.22;;;27.26;55.23
13934;BME280;7039;52.168;9.866;2023-06-10T10:47:08;100768.84;;;27.22;56.20
13934;BME280;7039;52.168;9.866;2023-06-10T10:49:35;100762.69;;;27.13;56.20
13934;BME280;7039;52.168;9.866;2023-06-10T10:52:04;100765.38;;;27.36;56.46
13934;BME280;7039;52.168;9.866;2023-06-10T10:54:32;100755.44;;;27.45;55.60
13934;BME280;7039;52.168;9.866;2023-06-10T10:57:14;100759.56;;;27.33;54.20
13934;BME280;7039;52.168;9.866;2023-06-10T10:59:45;100755.44;;;27.45;55.61
13934;BME280;7039;52.168;9.866;2023-06-10T11:02:15;100760.13;;;27.89;55.88
13934;BME280;7039;52.168;9.866;2023-06-10T11:04:45;100755.69;;;27.96;53.34
13934;BME280;7039;52.168;9.866;2023-06-10T11:07:12;100762.41;;;28.07;54.90
13934;BME280;7039;52.168;9.866;2023-06-10T11:09:59;100752.44;;;28.30;53.46
13934;BME280;7039;52.168;9.866;2023-06-10T11:12:40;100749.63;;;28.39;52.65
13934;BME280;7039;52.168;9.866;2023-06-10T11:15:07;100752.41;;;28.45;52.95
13934;BME280;7039;52.168;9.866;2023-06-10T11:17:34;100746.16;;;28.53;52.82
13934;BME280;7039;52.168;9.866;2023-06-10T11:20:00;100738.06;;;28.38;53.09
13934;BME280;7039;52.168;9.866;2023-06-10T11:22:27;100741.22;;;28.57;53.43
13934;BME280;7039;52.168;9.866;2023-06-10T11:24:54;100741.13;;;28.50;54.11
13934;BME280;7039;52.168;9.866;2023-06-10T11:27:22;100740.19;;;28.94;52.62
13934;BME280;7039;52.168;9.866;2023-06-10T11:29:58;100738.25;;;29.46;52.35
13934;BME280;7039;52.168;9.866;2023-06-10T11:32:29;100732.41;;;29.42;49.95
13934;BME280;7039;52.168;9.866;2023-06-10T11:34:56;100734.09;;;29.50;50.72
13934;BME280;7039;52.168;9.866;2023-06-10T11:37:22;100726.09;;;29.56;50.00
13934;BME280;7039;52.168;9.866;2023-06-10T11:39:51;100718.81;;;29.72;49.50
13934;BME280;7039;52.168;9.866;2023-06-10T11:42:18;100724.84;;;29.52;49.41
13934;BME280;7039;52.168;9.866;2023-06-10T11:44:48;100722.25;;;29.94;51.27
13934;BME280;7039;52.168;9.866;2023-06-10T11:47:17;100715.47;;;29.98;49.42
13934;BME280;7039;52.168;9.866;2023-06-10T11:49:43;100714.19;;;30.29;48.87
13934;BME280;7039;52.168;9.866;2023-06-10T11:52:10;100716.16;;;30.62;48.89
13934;BME280;7039;52.168;9.866;2023-06-10T11:54:37;100705.22;;;30.83;47.82
13934;BME280;7039;52.168;9.866;2023-06-10T11:57:04;100710.75;;;30.55;45.28
13934;BME280;7039;52.168;9.866;2023-06-10T11:59:31;100711.09;;;30.93;46.54
13934;BME280;7039;52.168;9.866;2023-06-10T12:01:58;100705.81;;;30.65;47.84
13934;BME280;7039;52.168;9.866;2023-06-10T12:04:26;100711.09;;;30.87;47.19
13934;BME280;7039;52.168;9.866;2023-06-10T12:06:53;100708.81;;;30.97;47.33
13934;BME280;7039;52.168;9.866;2023-06-10T12:09:21;100712.56;;;31.09;46.51
13934;BME280;7039;52.168;9.866;2023-06-10T12:11:50;100704.28;;;31.44;45.76
13934;BME280;7039;52.168;9.866;2023-06-10T12:17:23;100714.81;;;31.79;43.70
13934;BME280;7039;52.168;9.866;2023-06-10T12:19:51;100714.72;;;32.19;45.12
13934;BME280;7039;52.168;9.866;2023-06-10T12:22:18;100704.41;;;32.54;44.48
13934;BME280;7039;52.168;9.866;2023-06-10T12:24:56;100698.66;;;32.37;43.90
13934;BME280;7039;52.168;9.866;2023-06-10T12:27:24;100698.81;;;32.49;44.00
13934;BME280;7039;52.168;9.866;2023-06-10T12:29:52;100704.81;;;32.90;45.07
13934;BME280;7039;52.168;9.866;2023-06-10T12:32:19;100707.84;;;33.32;43.33
13934;BME280;7039;52.168;9.866;2023-06-10T12:34:48;100697.59;;;33.15;43.46
13934;BME280;7039;52.168;9.866;2023-06-10T12:37:16;100696.22;;;33.31;41.94
13934;BME280;7039;52.168;9.866;2023-06-10T12:39:50;100694.16;;;33.26;42.50
13934;BME280;7039;52.168;9.866;2023-06-10T12:42:21;100690.03;;;33.24;41.47
13934;BME280;7039;52.168;9.866;2023-06-10T12:44:53;100682.47;;;33.33;40.67
13934;BME280;7039;52.168;9.866;2023-06-10T12:47:19;100678.94;;;33.76;40.09
13934;BME280;7039;52.168;9.866;2023-06-10T12:49:46;100686.25;;;33.94;41.31
13934;BME280;7039;52.168;9.866;2023-06-10T12:52:12;100673.44;;;34.68;39.82
13934;BME280;7039;52.168;9.866;2023-06-10T12:54:40;100679.16;;;34.60;39.25
13934;BME280;7039;52.168;9.866;2023-06-10T12:57:07;100672.78;;;34.96;39.65
13934;BME280;7039;52.168;9.866;2023-06-10T12:59:35;100668.34;;;35.49;37.73
13934;BME280;7039;52.168;9.866;2023-06-10T13:02:02;100669.66;;;36.10;36.92
13934;BME280;7039;52.168;9.866;2023-06-10T13:04:29;100667.91;;;36.04;37.03